Time;durP1;ratioP1;P1;durP2;ratioP2;P2;SDS_P1;SDS_P2;PMS_P1;PMS_P2;Temp;Humidity;BMP_temperature;BMP_pressure;BME280_temperature;BME280_humidity;BME280_pressure;Samples;Min_cycle;Max_cycle;Signal;HPM_P1;HPM_P2
2022/10/08 00:01:04;;;;;;;;;;;;;;;8.25;66.19;101076.86;1661158;85;21487;-78
2022/10/08 00:03:53;;;;;;;13.70;8.85;;;;;;;8.21;66.57;101076.85;1663069;85;20172;-78
2022/10/08 00:06:38;;;;;;;13.78;10.03;;;;;;;8.15;66.27;101064.82;1655087;84;20975;-78
2022/10/08 00:09:23;;;;;;;13.35;10.93;;;;;;;8.13;66.29;101064.39;1662286;85;21593;-78
2022/10/08 00:12:08;;;;;;;13.32;10.60;;;;;;;8.09;66.29;101062.23;1669001;85;21074;-78
2022/10/08 00:14:53;;;;;;;12.37;9.35;;;;;;;8.05;66.35;101058.37;1658854;84;21114;-78
2022/10/08 00:17:38;;;;;;;13.53;9.78;;;;;;;8.03;66.37;101052.36;1657369;84;21089;-77
2022/10/08 00:20:23;;;;;;;11.68;9.60;;;;;;;8.00;66.38;101047.20;1652363;85;21066;-77
2022/10/08 00:23:09;;;;;;;14.60;9.88;;;;;;;7.98;66.44;101044.63;1662484;85;21003;-77
2022/10/08 00:25:53;;;;;;;14.60;10.45;;;;;;;7.95;66.42;101047.19;1648190;85;21113;-78
2022/10/08 00:28:42;;;;;;;16.60;11.43;;;;;;;7.94;66.47;101039.03;1654039;84;21101;-77
2022/10/08 00:31:35;;;;;;;17.87;12.23;;;;;;;7.90;66.46;101035.59;1666370;85;21082;-77
2022/10/08 00:34:22;;;;;;;19.73;11.38;;;;;;;7.87;66.51;101043.74;1648193;84;21094;-78
2022/10/08 00:37:07;;;;;;;19.85;13.05;;;;;;;7.84;66.53;101038.59;1654306;84;21097;-78
2022/10/08 00:39:52;;;;;;;16.35;12.65;;;;;;;7.82;66.58;101035.15;1663524;85;21521;-77
2022/10/08 00:42:37;;;;;;;19.60;13.73;;;;;;;7.81;66.58;101043.73;1543804;84;5001785;-78
2022/10/08 00:45:23;;;;;;;21.68;13.98;;;;;;;7.78;66.62;101033.45;1661642;85;21118;-78
2022/10/08 00:48:24;;;;;;;24.15;14.05;;;;;;;7.76;66.69;101035.17;1664189;84;21392;-78
2022/10/08 00:51:04;;;;;;;21.12;14.33;;;;;;;7.76;66.71;101029.59;1672453;84;21080;-78
2022/10/08 00:53:51;;;;;;;23.80;14.50;;;;;;;7.78;66.76;101031.74;1663058;85;21528;-78
2022/10/08 00:56:38;;;;;;;18.27;13.85;;;;;;;7.79;66.76;101030.89;1662097;84;21564;-78
2022/10/08 00:59:25;;;;;;;17.25;12.55;;;;;;;7.77;66.82;101032.59;1648456;85;21530;-77
2022/10/08 01:02:12;;;;;;;13.80;11.33;;;;;;;7.77;66.82;101022.30;1642986;86;21087;-78
2022/10/08 01:04:57;;;;;;;15.05;11.63;;;;;;;7.77;66.85;101021.02;1641577;86;21127;-77
2022/10/08 01:08:08;;;;;;;17.57;11.68;;;;;;;7.77;66.86;101018.44;1630787;86;21047;-78
2022/10/08 01:10:59;;;;;;;16.30;11.73;;;;;;;7.77;66.89;101008.57;1649941;84;21101;-77
2022/10/08 01:14:07;;;;;;;15.15;11.93;;;;;;;7.75;66.95;101005.99;1647458;86;21035;-77
2022/10/08 01:17:06;;;;;;;13.25;11.10;;;;;;;7.74;67.02;100999.13;1653252;84;21050;-77
2022/10/08 01:20:14;;;;;;;13.08;10.13;;;;;;;7.75;67.01;100993.13;1605006;87;21127;-77
2022/10/08 01:23:27;;;;;;;14.95;10.28;;;;;;;7.76;67.04;100996.55;1610639;87;21310;-78
2022/10/08 01:26:47;;;;;;;13.78;10.90;;;;;;;7.75;67.08;100994.41;1603835;87;21100;-77
2022/10/08 01:29:39;;;;;;;13.43;11.08;;;;;;;7.75;67.12;100990.98;1593119;88;21200;-77
2022/10/08 01:32:28;;;;;;;15.08;11.63;;;;;;;7.75;67.12;100984.54;1603336;87;21167;-77
2022/10/08 01:35:25;;;;;;;19.95;14.47;;;;;;;7.76;67.14;100980.69;1612209;88;21176;-78
2022/10/08 01:38:15;;;;;;;22.95;15.43;;;;;;;7.75;67.14;100984.54;1582867;87;21096;-78
2022/10/08 01:41:04;;;;;;;24.52;17.32;;;;;;;7.73;67.23;100983.25;1593660;88;21148;-78
2022/10/08 01:43:54;;;;;;;22.13;17.00;;;;;;;7.74;67.27;100981.54;1608914;87;21378;-78
2022/10/08 01:46:44;;;;;;;23.87;14.85;;;;;;;7.74;67.30;100981.11;1593318;89;39397;-78
2022/10/08 01:49:34;;;;;;;23.62;16.65;;;;;;;7.74;67.35;100980.25;1607524;87;21586;-78
2022/10/08 01:52:26;;;;;;;16.95;14.83;;;;;;;7.72;67.38;100980.67;1586445;89;21481;-78
2022/10/08 01:55:19;;;;;;;17.35;13.75;;;;;;;7.73;67.42;100972.95;1609545;87;21406;-78
2022/10/08 01:58:14;;;;;;;16.73;12.25;;;;;;;7.75;67.43;100978.97;1640753;86;21359;-78
2022/10/08 02:01:08;;;;;;;17.92;13.18;;;;;;;7.75;67.41;100978.11;1674358;83;20979;-78
2022/10/08 02:07:04;;;;;;;23.60;15.90;;;;;;;7.74;67.49;100964.80;1655508;85;21546;-78
2022/10/08 02:09:53;;;;;;;25.82;17.40;;;;;;;7.76;67.54;100964.38;1661063;85;21129;-78
2022/10/08 02:12:39;;;;;;;28.35;17.73;;;;;;;7.77;67.60;100959.66;1677972;84;21076;-77
2022/10/08 02:15:54;;;;;;;34.55;18.55;;;;;;;7.79;67.66;100961.81;1646382;85;21059;-77
2022/10/08 02:18:47;;;;;;;23.57;16.67;;;;;;;7.80;67.69;100955.34;1665161;85;21643;-77
2022/10/08 02:21:33;;;;;;;28.77;17.65;;;;;;;7.81;67.73;100954.48;1642481;85;21610;-77
2022/10/08 02:24:26;;;;;;;33.92;18.25;;;;;;;7.83;67.83;100952.77;1667976;85;21096;-77
2022/10/08 02:27:13;;;;;;;26.20;17.37;;;;;;;7.87;67.89;100955.78;1641746;85;21083;-78
2022/10/08 02:30:09;;;;;;;29.65;18.27;;;;;;;7.92;67.95;100952.78;1678010;83;21709;-78
2022/10/08 02:33:10;;;;;;;26.42;17.45;;;;;;;7.97;68.00;100950.20;1672218;83;22223;-78
2022/10/08 02:35:59;;;;;;;23.98;16.52;;;;;;;8.02;68.09;100943.34;1653044;83;21108;-78
2022/10/08 02:38:54;;;;;;;20.48;15.85;;;;;;;8.06;68.11;100948.05;1648011;85;21043;-78
2022/10/08 02:41:52;;;;;;;24.77;16.20;;;;;;;8.09;68.14;100943.77;1641842;85;21106;-78
2022/10/08 02:44:51;;;;;;;25.60;16.07;;;;;;;8.13;68.21;100944.19;1674627;84;21102;-78
2022/10/08 02:47:39;;;;;;;19.23;15.35;;;;;;;8.18;68.20;100948.05;1651316;85;22227;-77
2022/10/08 02:50:26;;;;;;;25.72;16.45;;;;;;;8.21;68.26;100948.91;1675610;84;21455;-78
2022/10/08 02:53:17;;;;;;;29.45;15.70;;;;;;;8.24;68.26;100951.48;1650223;86;21127;-78
2022/10/08 02:56:25;;;;;;;24.40;15.63;;;;;;;8.27;68.34;100949.33;1643923;86;21129;-78
2022/10/08 02:59:10;;;;;;;20.20;14.85;;;;;;;8.28;68.42;100947.19;1640118;85;21583;-78
2022/10/08 03:02:03;;;;;;;19.67;14.70;;;;;;;8.32;68.46;100953.19;1639413;85;21170;-77
2022/10/08 03:05:00;;;;;;;21.75;16.48;;;;;;;8.35;68.53;100951.47;1648932;85;21791;-78
2022/10/08 03:07:49;;;;;;;22.70;17.07;;;;;;;8.37;68.58;100950.18;1671135;83;21061;-77
2022/10/08 03:10:37;;;;;;;25.00;17.00;;;;;;;8.38;68.64;100945.45;1654662;85;21487;-77
2022/10/08 03:13:24;;;;;;;20.23;15.08;;;;;;;8.41;68.67;100946.30;1669227;84;22266;-77
2022/10/08 03:16:12;;;;;;;;;;;;;;;8.45;68.67;100943.30;1648722;85;21102;-77
2022/10/08 03:19:01;;;;;;;20.82;15.10;;;;;;;8.48;69.14;100938.13;1646660;85;20181;-77
2022/10/08 03:21:48;;;;;;;24.18;15.68;;;;;;;8.51;68.75;100936.84;1646128;85;21608;-77
2022/10/08 03:24:35;;;;;;;21.15;15.28;;;;;;;8.53;68.76;100942.42;1640482;85;21066;-78
2022/10/08 03:27:19;;;;;;;;;;;;;;;8.55;68.80;100938.12;1656303;85;21617;-78
2022/10/08 03:30:06;;;;;;;20.23;14.78;;;;;;;8.55;69.17;100936.83;1676667;83;20493;-78
2022/10/08 03:32:50;;;;;;;;;;;;;;;8.56;68.89;100941.13;1658136;86;20957;-78
2022/10/08 03:35:35;;;;;;;20.55;14.33;;;;;;;8.58;69.23;100934.24;1660715;85;20133;-78
2022/10/08 03:38:20;;;;;;;21.45;14.40;;;;;;;8.59;68.88;100937.25;1680450;83;21042;-78
2022/10/08 03:41:05;;;;;;;18.73;14.75;;;;;;;8.59;68.92;100933.38;1640998;85;21646;-78
2022/10/08 03:43:51;;;;;;;16.75;13.93;;;;;;;8.59;68.95;100929.52;1683721;83;21080;-78
2022/10/08 03:46:36;;;;;;;20.32;15.45;;;;;;;8.56;68.94;100919.22;1649060;85;21026;-77
2022/10/08 03:49:21;;;;;;;21.30;15.58;;;;;;;8.56;68.98;100915.78;1682305;84;21054;-78
2022/10/08 03:52:07;;;;;;;19.10;14.73;;;;;;;8.55;69.06;100920.51;1645783;85;21059;-78
2022/10/08 03:54:52;;;;;;;20.75;13.22;;;;;;;8.55;69.08;100905.91;1675696;84;21068;-78
2022/10/08 03:57:37;;;;;;;20.25;14.23;;;;;;;8.56;69.11;100901.17;1644748;86;21099;-78
2022/10/08 04:00:22;;;;;;;16.93;14.15;;;;;;;8.54;69.08;100893.88;1635238;85;21067;-78
2022/10/08 04:03:08;;;;;;;17.52;13.70;;;;;;;8.52;69.11;100891.73;1662572;84;22262;-77
2022/10/08 04:05:53;;;;;;;18.42;13.68;;;;;;;8.50;69.12;100888.30;1674255;83;21532;-77
2022/10/08 04:08:38;;;;;;;19.30;14.33;;;;;;;8.50;69.14;100893.89;1645744;85;21078;-77
2022/10/08 04:11:23;;;;;;;20.27;14.07;;;;;;;8.49;69.22;100890.45;1677820;84;21059;-78
2022/10/08 04:14:08;;;;;;;16.05;13.22;;;;;;;8.50;69.25;100893.89;1661928;85;21071;-78
2022/10/08 04:16:54;;;;;;;17.77;13.88;;;;;;;8.48;69.22;100896.47;1678096;83;21035;-78
2022/10/08 04:19:39;;;;;;;18.15;13.65;;;;;;;8.48;69.26;100896.91;1653239;85;21479;-78
2022/10/08 04:22:24;;;;;;;15.72;13.32;;;;;;;8.48;69.30;100898.19;1653086;85;21669;-78
2022/10/08 04:25:09;;;;;;;17.62;12.47;;;;;;;8.47;69.32;100893.89;1646798;85;21564;-78
2022/10/08 04:27:55;;;;;;;16.87;12.40;;;;;;;8.46;69.37;100894.76;1680522;84;21037;-78
2022/10/08 04:30:40;;;;;;;17.77;14.45;;;;;;;8.46;69.40;100896.05;1638727;86;21051;-77
2022/10/08 04:33:27;;;;;;;20.10;13.48;;;;;;;8.45;69.46;100891.33;1644393;86;21076;-77
2022/10/08 04:36:16;;;;;;;16.97;13.38;;;;;;;8.46;69.48;100895.62;1658328;85;21145;-78
2022/10/08 04:39:01;;;;;;;18.65;13.40;;;;;;;8.47;69.50;100896.05;1669010;83;21114;-77
2022/10/08 04:41:47;;;;;;;19.52;13.95;;;;;;;8.45;69.55;100891.33;1649802;85;21066;-77
2022/10/08 04:44:32;;;;;;;21.55;14.23;;;;;;;8.45;69.61;100892.61;1645899;85;21102;-78
2022/10/08 04:47:17;;;;;;;19.67;15.43;;;;;;;8.47;69.65;100892.61;1649800;85;21091;-77
2022/10/08 04:50:03;;;;;;;19.77;13.85;;;;;;;8.47;69.68;100886.17;1679648;83;21520;-77
2022/10/08 04:52:48;;;;;;;21.03;14.67;;;;;;;8.48;69.67;100894.33;1651215;85;21130;-78
2022/10/08 04:55:33;;;;;;;19.00;15.40;;;;;;;8.49;69.70;100906.34;1646759;85;21062;-78
2022/10/08 04:58:19;;;;;;;20.82;15.78;;;;;;;8.49;69.79;100901.19;1669794;84;21103;-77
2022/10/08 05:01:07;;;;;;;25.93;15.87;;;;;;;8.50;69.83;100910.21;1659529;84;22321;-77
2022/10/08 05:03:54;;;;;;;22.37;15.50;;;;;;;8.54;69.86;100909.34;1662214;85;22062;-77
2022/10/08 05:06:39;;;;;;;25.43;16.37;;;;;;;8.57;69.95;100908.05;1656852;85;21034;-77
2022/10/08 05:09:24;;;;;;;26.95;15.53;;;;;;;8.59;70.04;100905.03;1651176;84;21367;-77
2022/10/08 05:12:09;;;;;;;19.55;15.93;;;;;;;8.62;70.03;100900.30;1654846;86;21085;-78
2022/10/08 05:14:54;;;;;;;17.30;13.75;;;;;;;8.64;70.02;100901.15;1663861;84;21129;-78
2022/10/08 05:17:40;;;;;;;25.08;15.05;;;;;;;8.67;70.05;100899.85;1651372;84;21066;-77
2022/10/08 05:20:25;;;;;;;20.68;14.20;;;;;;;8.66;70.07;100905.87;1659042;85;21134;-77
2022/10/08 05:23:10;;;;;;;18.45;13.70;;;;;;;8.70;70.10;100899.84;1649765;85;22197;-77
2022/10/08 05:25:55;;;;;;;23.18;16.55;;;;;;;8.73;70.11;100892.09;1664718;85;21523;-77
2022/10/08 05:28:42;;;;;;;20.90;14.78;;;;;;;8.75;70.18;100888.22;1661487;84;21159;-77
2022/10/08 05:31:29;;;;;;;20.70;14.73;;;;;;;8.79;70.22;100880.90;1661036;84;21649;-77
2022/10/08 05:34:14;;;;;;;23.22;15.45;;;;;;;8.80;70.29;100875.73;1656418;85;20979;-77
2022/10/08 05:36:59;;;;;;;21.55;16.93;;;;;;;8.84;70.38;100876.11;1647040;86;21478;-77
2022/10/08 05:39:44;;;;;;;28.15;15.72;;;;;;;8.90;70.42;100877.80;1651849;85;20967;-77
2022/10/08 05:42:29;;;;;;;21.90;15.98;;;;;;;8.97;70.45;100879.49;1659856;84;21341;-77
2022/10/08 05:45:14;;;;;;;24.77;16.37;;;;;;;9.05;70.44;100883.32;1655157;85;21565;-77
2022/10/08 05:47:59;;;;;;;23.18;14.68;;;;;;;9.15;70.53;100883.27;1654707;85;21287;-77
2022/10/08 05:50:44;;;;;;;24.70;15.20;;;;;;;9.33;70.58;100882.30;1652695;84;21050;-78
2022/10/08 05:53:29;;;;;;;32.13;16.27;;;;;;;9.43;70.51;100878.75;1652006;84;21111;-78
2022/10/08 05:56:18;;;;;;;28.35;17.25;;;;;;;9.53;70.56;100869.22;1664711;84;21044;-78
2022/10/08 05:59:03;;;;;;;19.57;15.60;;;;;;;9.65;70.68;100868.27;1653000;84;21068;-78
2022/10/08 06:01:49;;;;;;;17.80;13.15;;;;;;;9.78;70.72;100872.03;1667022;84;21114;-78
2022/10/08 06:04:34;;;;;;;20.25;15.28;;;;;;;9.87;70.66;100877.12;1713657;81;21100;-78
2022/10/08 06:07:19;;;;;;;20.77;15.13;;;;;;;9.97;70.66;100876.57;1718196;81;21029;-78
2022/10/08 06:10:06;;;;;;;17.27;13.85;;;;;;;10.06;70.75;100876.92;1681154;84;21042;-78
2022/10/08 06:12:50;;;;;;;;;;;;;;;10.20;70.84;100875.09;1707662;82;21347;-78
2022/10/08 06:15:35;;;;;;;17.17;13.10;;;;;;;10.44;71.21;100882.98;1701980;81;20130;-78
2022/10/08 06:18:21;;;;;;;20.95;14.93;;;;;;;10.59;70.87;100895.75;1708245;82;20952;-78
2022/10/08 06:21:09;;;;;;;22.50;15.95;;;;;;;10.70;70.86;100902.94;1715966;82;20949;-78
2022/10/08 06:23:57;;;;;;;23.47;17.17;;;;;;;10.83;70.89;100900.63;1703867;82;20961;-78
2022/10/08 06:26:43;;;;;;;24.02;16.32;;;;;;;10.95;70.98;100900.88;1714150;82;21333;-78
2022/10/08 06:29:28;;;;;;;21.52;15.98;;;;;;;11.05;71.09;100899.89;1713450;81;25226;-78
2022/10/08 06:32:13;;;;;;;21.15;16.35;;;;;;;11.16;71.12;100905.78;1703320;81;20964;-78
2022/10/08 06:34:58;;;;;;;18.10;14.07;;;;;;;11.28;71.14;100906.91;1700079;82;20929;-78
2022/10/08 06:37:48;;;;;;;25.90;17.55;;;;;;;11.39;71.09;100904.60;1716714;81;21017;-78
2022/10/08 06:40:38;;;;;;;20.97;16.17;;;;;;;11.50;71.13;100900.94;1706678;82;20924;-79
2022/10/08 06:43:23;;;;;;;21.85;17.12;;;;;;;11.70;71.34;100887.69;1702946;81;20961;-79
2022/10/08 06:46:09;;;;;;;25.10;18.12;;;;;;;12.09;71.50;100887.90;1715157;81;20965;-79
2022/10/08 06:48:53;;;;;;;29.65;17.60;;;;;;;12.49;71.56;100887.55;1713666;81;20948;-79
2022/10/08 06:51:38;;;;;;;24.80;17.50;;;;;;;12.84;71.51;100898.96;1706888;82;20976;-79
2022/10/08 06:54:26;;;;;;;24.20;18.25;;;;;;;13.29;71.79;100896.27;1712911;81;20956;-79
2022/10/08 06:57:10;;;;;;;20.72;16.23;;;;;;;14.03;71.89;100893.14;1711346;81;21388;-79
2022/10/08 06:59:57;;;;;;;28.55;15.75;;;;;;;14.86;71.85;100887.80;1721360;81;21311;-79
2022/10/08 07:02:43;;;;;;;17.45;14.33;;;;;;;15.65;71.80;100887.08;1720403;81;20917;-77
2022/10/08 07:05:27;;;;;;;17.87;15.23;;;;;;;16.07;71.42;100891.33;1716096;81;20917;-78
2022/10/08 07:08:13;;;;;;;18.07;15.32;;;;;;;16.23;71.60;100896.39;1717308;81;20940;-78
2022/10/08 07:11:16;;;;;;;17.25;14.75;;;;;;;16.36;71.69;100891.59;1718913;81;20913;-78
2022/10/08 07:14:01;;;;;;;17.90;15.25;;;;;;;16.75;71.94;100900.61;1721266;81;21457;-78
2022/10/08 07:16:46;;;;;;;22.65;14.53;;;;;;;17.12;71.85;100894.85;1709231;81;20920;-78
2022/10/08 07:19:31;;;;;;;22.20;14.93;;;;;;;17.45;71.87;100894.42;1708007;82;21002;-78
2022/10/08 07:22:16;;;;;;;17.92;12.93;;;;;;;17.82;71.89;100891.16;1709178;81;21117;-78
2022/10/08 07:25:01;;;;;;;14.68;12.73;;;;;;;17.98;71.69;100899.23;1680851;83;21093;-78
2022/10/08 07:27:46;;;;;;;15.48;11.93;;;;;;;18.01;71.55;100901.26;1673047;83;21390;-78
2022/10/08 07:30:31;;;;;;;13.13;10.38;;;;;;;18.00;71.59;100912.64;1657214;84;21102;-78
2022/10/08 07:33:16;;;;;;;16.95;12.00;;;;;;;17.92;71.55;100908.64;1663142;84;21161;-78
2022/10/08 07:36:11;;;;;;;13.15;10.08;;;;;;;17.84;71.58;100919.42;1657154;85;21110;-78
2022/10/08 07:39:03;;;;;;;18.50;10.15;;;;;;;17.94;71.51;100908.97;1656845;84;21030;-79
2022/10/08 07:41:49;;;;;;;11.00;9.70;;;;;;;17.90;71.44;100901.31;1655464;84;21024;-79
2022/10/08 07:44:33;;;;;;;12.37;9.18;;;;;;;18.03;71.43;100905.97;1661123;84;20951;-79
2022/10/08 07:47:18;;;;;;;9.78;8.88;;;;;;;18.01;71.03;100906.49;1656298;84;21006;-79
2022/10/08 07:50:04;;;;;;;11.63;9.35;;;;;;;17.88;71.12;100907.06;1664673;84;21019;-79
2022/10/08 07:52:50;;;;;;;10.67;8.80;;;;;;;17.88;70.88;100896.60;1664254;84;21109;-79
2022/10/08 07:55:35;;;;;;;12.53;9.30;;;;;;;17.88;70.88;100896.60;1658279;84;21149;-79
2022/10/08 07:58:20;;;;;;;14.70;8.08;;;;;;;17.94;70.85;100900.27;1657892;84;21106;-79
2022/10/08 08:01:08;;;;;;;12.33;8.48;;;;;;;18.09;70.92;100903.09;1650902;84;22023;-79
2022/10/08 08:03:55;;;;;;;11.83;8.43;;;;;;;18.26;70.67;100891.88;1632167;84;21089;-77
2022/10/08 08:06:46;;;;;;;13.05;8.50;;;;;;;18.45;70.66;100899.33;1655734;84;21021;-77
2022/10/08 08:09:31;;;;;;;11.97;8.63;;;;;;;18.49;70.43;100910.52;1649881;84;21097;-78
2022/10/08 08:12:16;;;;;;;11.28;8.05;;;;;;;18.14;70.10;100904.20;1657302;84;21753;-78
2022/10/08 08:15:01;;;;;;;15.03;7.47;;;;;;;17.92;70.30;100906.02;1658180;84;21089;-78
2022/10/08 08:17:46;;;;;;;12.33;8.40;;;;;;;17.81;70.27;100898.62;1650403;84;21476;-80
2022/10/08 08:20:31;;;;;;;11.73;7.95;;;;;;;17.74;70.11;100903.25;1667594;84;21700;-80
2022/10/08 08:23:16;;;;;;;14.00;7.58;;;;;;;17.61;70.06;100905.12;1666699;84;21305;-80
2022/10/08 08:26:05;;;;;;;11.93;8.73;;;;;;;17.53;69.92;100909.34;1662477;84;21106;-80
2022/10/08 08:28:54;;;;;;;10.58;8.08;;;;;;;17.44;69.81;100909.70;1672993;84;21490;-80
2022/10/08 08:31:43;;;;;;;11.43;7.55;;;;;;;17.36;69.75;100907.39;1657659;84;21085;-80
2022/10/08 08:34:29;;;;;;;9.63;7.53;;;;;;;17.26;69.62;100904.74;1664111;84;21058;-80
2022/10/08 08:37:14;;;;;;;10.78;7.47;;;;;;;17.15;69.52;100903.03;1665406;83;21082;-80
2022/10/08 08:39:59;;;;;;;11.68;8.35;;;;;;;17.07;69.43;100904.63;1663124;84;21074;-80
2022/10/08 08:42:54;;;;;;;12.93;7.97;;;;;;;17.00;69.40;100903.16;1673237;84;21129;-80
2022/10/08 08:45:42;;;;;;;10.23;7.50;;;;;;;16.97;69.29;100914.17;1662387;84;21577;-77
2022/10/08 08:48:31;;;;;;;12.07;6.85;;;;;;;16.83;69.16;100906.84;1656996;84;21138;-77
2022/10/08 08:51:16;;;;;;;7.42;6.60;;;;;;;16.76;69.22;100891.01;1665881;84;21657;-77
2022/10/08 08:54:01;;;;;;;10.75;6.67;;;;;;;16.78;69.14;100891.80;1655730;85;21077;-77
2022/10/08 08:56:47;;;;;;;10.32;6.92;;;;;;;16.82;69.09;100893.39;1650368;84;21182;-77
2022/10/08 08:59:37;;;;;;;8.73;6.45;;;;;;;16.83;68.94;100891.18;1652916;85;20967;-77
2022/10/08 09:02:27;;;;;;;13.43;6.67;;;;;;;16.84;68.85;100907.25;1664376;84;21030;-77
2022/10/08 09:05:15;;;;;;;12.43;6.75;;;;;;;16.81;68.79;100909.52;1656522;84;20979;-78
2022/10/08 09:08:20;;;;;;;10.10;6.30;;;;;;;16.67;68.63;100904.41;1659302;84;20959;-78
2022/10/08 09:11:05;;;;;;;11.05;6.10;;;;;;;16.51;68.61;100905.41;1665531;84;21487;-78
2022/10/08 09:14:01;;;;;;;7.90;6.17;;;;;;;16.39;68.61;100908.00;1663607;84;21586;-78
2022/10/08 09:16:46;;;;;;;11.73;7.03;;;;;;;16.29;68.55;100906.61;1653477;84;21401;-78
2022/10/08 09:19:31;;;;;;;11.18;6.30;;;;;;;16.23;68.55;100909.44;1650228;84;21100;-78
2022/10/08 09:22:21;;;;;;;11.45;6.60;;;;;;;16.19;68.52;100906.53;1662059;84;20979;-78
2022/10/08 09:25:13;;;;;;;11.12;6.12;;;;;;;16.14;68.48;100903.23;1657242;84;20959;-78
2022/10/08 09:28:02;;;;;;;12.05;6.55;;;;;;;16.10;68.45;100911.64;1657715;84;20942;-78
2022/10/08 09:30:47;;;;;;;10.85;6.35;;;;;;;16.07;68.42;100918.72;1664992;84;20939;-78
2022/10/08 09:33:32;;;;;;;11.55;7.47;;;;;;;16.06;68.35;100920.92;1598689;84;5000685;-78
2022/10/08 09:36:36;;;;;;;11.15;6.67;;;;;;;16.03;68.36;100919.72;1672588;83;21577;-78
2022/10/08 09:39:25;;;;;;;9.75;6.28;;;;;;;16.07;68.35;100926.09;1677355;83;21320;-78
2022/10/08 09:42:16;;;;;;;11.20;6.15;;;;;;;16.11;68.36;100919.02;1678739;83;20906;-78
2022/10/08 09:45:02;;;;;;;10.75;6.55;;;;;;;16.14;68.28;100917.58;1673623;83;20960;-78
2022/10/08 09:48:04;;;;;;;12.40;6.07;;;;;;;16.20;68.27;100917.36;1671216;83;20906;-78
2022/10/08 09:51:00;;;;;;;8.93;6.30;;;;;;;16.27;68.18;100917.55;1648248;83;20980;-78
2022/10/08 09:53:52;;;;;;;14.78;5.80;;;;;;;16.33;68.16;100920.41;1672563;83;20955;-78
2022/10/08 09:56:37;;;;;;;11.45;5.55;;;;;;;16.35;68.12;100919.45;1678702;83;20910;-78
2022/10/08 09:59:26;;;;;;;9.28;5.85;;;;;;;16.39;68.04;100921.05;1676586;83;20911;-77
2022/10/08 10:02:29;;;;;;;6.87;5.33;;;;;;;16.43;68.05;100916.57;1670828;83;20957;-78
2022/10/08 10:05:25;;;;;;;6.78;4.92;;;;;;;16.48;68.07;100915.50;1643011;84;20950;-77
2022/10/08 10:08:42;;;;;;;;;;;;;;;16.51;67.96;100912.78;1652362;83;20934;-77
2022/10/08 10:11:46;;;;;;;11.40;4.28;;;;;;;16.50;67.65;100918.06;1637145;85;20137;-77
2022/10/08 10:14:43;;;;;;;8.50;4.40;;;;;;;16.51;67.84;100921.92;1641761;84;21393;-77
2022/10/08 10:17:49;;;;;;;8.18;4.25;;;;;;;16.51;67.72;100920.61;1642524;84;21577;-77
2022/10/08 10:20:58;;;;;;;8.98;4.30;;;;;;;16.49;67.73;100922.88;1594779;89;21107;-78
2022/10/08 10:23:53;;;;;;;7.62;4.17;;;;;;;16.51;67.67;100920.61;1595130;89;21148;-78
2022/10/08 10:26:42;;;;;;;6.87;3.77;;;;;;;16.52;67.62;100917.09;1569044;88;21597;-78
2022/10/08 10:29:32;;;;;;;7.40;4.33;;;;;;;16.51;67.54;100914.09;1570097;89;21691;-78
2022/10/08 10:32:25;;;;;;;9.00;3.90;;;;;;;16.48;67.43;100923.34;1594261;88;21092;-77
2022/10/08 10:35:18;;;;;;;8.03;3.98;;;;;;;16.44;67.38;100919.13;1577499;89;21246;-77
2022/10/08 10:38:09;;;;;;;8.43;3.80;;;;;;;16.46;67.40;100928.20;1590777;88;21756;-77
2022/10/08 10:41:32;;;;;;;7.67;4.35;;;;;;;16.48;67.33;100926.40;1593576;88;21116;-77
2022/10/08 10:44:25;;;;;;;5.92;4.40;;;;;;;16.51;67.31;100928.45;1595097;88;21104;-77
2022/10/08 10:47:11;;;;;;;12.25;4.47;;;;;;;16.55;67.25;100921.36;1592698;88;21108;-77
2022/10/08 10:49:57;;;;;;;;;;;;;;;16.56;67.22;100919.14;1599868;88;21454;-77
2022/10/08 10:53:02;;;;;;;8.45;3.33;;;;;;;16.60;67.05;100910.30;1572759;90;20491;-77
2022/10/08 10:55:55;;;;;;;8.13;3.70;;;;;;;16.63;67.14;100916.72;1584935;88;21021;-77
2022/10/08 10:59:29;;;;;;;8.20;4.17;;;;;;;16.65;66.95;100914.90;1644637;85;21094;-78
2022/10/08 11:02:26;;;;;;;6.03;3.80;;;;;;;16.62;66.94;100918.93;1644596;84;21057;-78
2022/10/08 11:05:22;;;;;;;11.20;4.87;;;;;;;16.61;66.91;100921.59;1643240;86;22725;-76
2022/10/08 11:08:34;;;;;;;9.30;4.40;;;;;;;16.59;66.89;100911.20;1646376;84;21077;-77
2022/10/08 11:11:42;;;;;;;8.63;3.52;;;;;;;16.61;66.86;100904.63;1640534;84;21061;-77
2022/10/08 11:15:00;;;;;;;7.37;3.70;;;;;;;16.64;66.80;100900.14;1644860;84;21554;-78
2022/10/08 11:18:21;;;;;;;5.90;3.70;;;;;;;16.66;66.74;100902.25;1642665;84;21090;-78
2022/10/08 11:21:14;;;;;;;7.95;3.90;;;;;;;16.69;66.70;100907.81;1642224;84;21076;-78
2022/10/08 11:24:08;;;;;;;11.55;4.30;;;;;;;16.69;66.61;100913.88;1645428;84;21065;-78
2022/10/08 11:27:20;;;;;;;9.05;4.37;;;;;;;16.70;66.55;100910.82;1647385;85;21049;-78
2022/10/08 11:30:16;;;;;;;8.40;3.50;;;;;;;16.72;66.51;100912.92;1640963;84;21521;-78
2022/10/08 11:33:02;;;;;;;10.78;3.98;;;;;;;16.72;66.45;100906.39;1642264;85;21066;-77
2022/10/08 11:36:14;;;;;;;10.55;3.87;;;;;;;16.73;66.43;100905.03;1641818;85;21139;-79
2022/10/08 11:39:22;;;;;;;6.20;3.35;;;;;;;16.77;66.41;100903.16;1652402;84;21271;-78
2022/10/08 11:42:46;;;;;;;5.35;3.55;;;;;;;16.81;66.39;100904.30;1651998;84;21553;-77
2022/10/08 11:45:39;;;;;;;6.97;3.12;;;;;;;16.84;66.26;100895.04;1642634;85;21054;-76
2022/10/08 11:48:34;;;;;;;9.95;3.92;;;;;;;16.87;66.23;100900.15;1647027;84;21125;-76
2022/10/08 11:51:24;;;;;;;9.50;3.52;;;;;;;16.91;66.13;100895.66;1645360;84;21085;-76
2022/10/08 11:54:37;;;;;;;6.37;3.77;;;;;;;16.92;66.10;100891.30;1642689;85;21117;-79
2022/10/08 11:57:37;;;;;;;11.85;3.58;;;;;;;16.95;66.09;100888.11;1643033;85;21069;-73
2022/10/08 12:00:38;;;;;;;6.03;3.72;;;;;;;17.01;66.08;100884.41;1640495;86;21691;-76
2022/10/08 12:03:30;;;;;;;8.35;3.52;;;;;;;17.01;65.94;100876.58;1650584;84;21603;-76
2022/10/08 12:06:21;;;;;;;9.40;4.10;;;;;;;17.04;65.91;100881.69;1668780;83;21038;-76
2022/10/08 12:09:09;;;;;;;6.72;4.28;;;;;;;17.01;65.81;100881.80;1672546;83;21541;-76
2022/10/08 12:11:54;;;;;;;8.90;3.72;;;;;;;17.00;65.83;100884.02;1658643;83;21046;-75
2022/10/08 12:14:44;;;;;;;7.40;3.65;;;;;;;17.04;65.79;100887.77;1671709;83;22128;-75
2022/10/08 12:17:35;;;;;;;11.53;3.77;;;;;;;17.07;65.75;100879.80;1671975;83;21122;-75
2022/10/08 12:20:23;;;;;;;4.95;3.17;;;;;;;17.08;65.63;100879.35;1674311;83;21045;-75
2022/10/08 12:23:26;;;;;;;6.42;3.12;;;;;;;17.06;65.61;100874.64;1668874;83;22293;-75
2022/10/08 12:26:14;;;;;;;5.78;3.47;;;;;;;17.04;65.56;100869.47;1668270;83;21061;-75
2022/10/08 12:28:59;;;;;;;9.03;3.77;;;;;;;17.01;65.53;100873.97;1667006;83;21066;-75
2022/10/08 12:31:45;;;;;;;6.85;2.83;;;;;;;17.00;65.43;100869.65;1677055;83;22080;-75
2022/10/08 12:34:30;;;;;;;8.68;3.42;;;;;;;16.96;65.42;100877.20;1679264;83;21081;-75
2022/10/08 12:37:39;;;;;;;10.30;4.25;;;;;;;16.96;65.37;100870.67;1657471;83;21106;-75
2022/10/08 12:40:51;;;;;;;6.30;3.20;;;;;;;16.93;65.22;100870.80;1676637;83;21320;-75
2022/10/08 12:43:44;;;;;;;10.25;3.47;;;;;;;16.86;65.13;100872.78;1673590;83;21534;-75
2022/10/08 12:47:01;;;;;;;5.45;2.80;;;;;;;16.78;65.11;100874.37;1671830;84;21100;-75
2022/10/08 12:49:55;;;;;;;9.43;2.98;;;;;;;16.80;65.12;100873.02;1676191;84;21578;-75
2022/10/08 12:52:40;;;;;;;8.25;2.87;;;;;;;16.85;65.11;100870.63;1677505;84;21086;-75
2022/10/08 12:55:26;;;;;;;6.87;2.50;;;;;;;16.87;64.96;100870.56;1673553;84;21080;-75
2022/10/08 12:58:16;;;;;;;5.70;2.85;;;;;;;16.89;64.92;100868.75;1674904;83;21033;-75
2022/10/08 13:01:03;;;;;;;5.92;2.45;;;;;;;16.90;64.91;100869.60;1677184;83;21066;-75
2022/10/08 13:04:18;;;;;;;9.20;2.70;;;;;;;16.97;64.85;100873.23;1675165;83;20961;-75
2022/10/08 13:07:08;;;;;;;9.88;3.22;;;;;;;17.01;64.74;100867.44;1674458;83;21093;-75
2022/10/08 13:09:59;;;;;;;9.00;3.12;;;;;;;17.00;64.73;100866.58;1676643;83;21075;-75